Main page
METAR-TAF:

METAR-TAF

Airports :

Sarakhs Airport

Sarakhs, Iran

latitude: 36-30-04N, longitude: 061-03-54E, elevation: 288 m

Current weather observation

The report was made 17 minutes ago, at 07:00 UTC
Wind 8 kt from the West/Southwest
Temperature 36°C
Humidity 24%
Pressure 1008 hPa
Visibility 10 km or more
Few clouds at a height of 3500 ft
Scattered clouds at a height of 19000 ft

METAR: OIMC 110700Z 25008KT 9999 FEW035 SCT190 36/12 Q1008

Time: 11:47 (07:17 UTC)


TAF: missing

Weather observations and forecasts of more than 4000 airports (METAR and TAF reports).

The available stations are represented by yellow and red dots on the map.

Hover mouse over dot to see the name of the station.

Then click to see weather observations and forecasts.

To change the map : click on the green buttons with a black cross to zoom in, on the green button with a dash to zoom out, or on the green arrows for adjacent maps.


METAR-TAF: